createdAt,value
2022-11-22T00:00:25.435Z,2.58
2022-11-22T00:02:53.286Z,2.45
2022-11-22T00:05:22.522Z,4.03
2022-11-22T00:07:50.238Z,2.35
2022-11-22T00:10:18.072Z,2.70
2022-11-22T00:12:47.039Z,2.88
2022-11-22T00:15:14.886Z,2.13
2022-11-22T00:17:42.506Z,2.80
2022-11-22T00:20:12.039Z,2.28
2022-11-22T00:22:44.742Z,1.95
2022-11-22T00:25:13.147Z,2.50
2022-11-22T00:27:40.750Z,2.90
2022-11-22T00:30:09.082Z,2.15
2022-11-22T00:32:37.229Z,2.08
2022-11-22T00:35:05.483Z,2.28
2022-11-22T00:37:33.157Z,2.22
2022-11-22T00:40:02.402Z,2.03
2022-11-22T00:42:30.035Z,2.08
2022-11-22T00:44:57.911Z,2.35
2022-11-22T00:47:25.752Z,1.60
2022-11-22T00:49:53.328Z,2.10
2022-11-22T00:52:20.933Z,2.53
2022-11-22T00:54:54.261Z,2.17
2022-11-22T00:57:23.880Z,1.90
2022-11-22T00:59:51.504Z,1.90
2022-11-22T01:02:19.126Z,2.05
2022-11-22T01:04:47.404Z,1.38
2022-11-22T01:07:15.101Z,3.38
2022-11-22T01:09:42.732Z,1.63
2022-11-22T01:12:10.472Z,2.78
2022-11-22T01:14:39.593Z,2.67
2022-11-22T01:17:09.885Z,1.95
2022-11-22T01:19:37.521Z,1.98
2022-11-22T01:22:05.249Z,1.42
2022-11-22T01:24:32.851Z,2.05
2022-11-22T01:27:00.426Z,1.45
2022-11-22T01:29:28.255Z,1.50
2022-11-22T01:31:57.566Z,2.17
2022-11-22T01:34:25.349Z,1.73
2022-11-22T01:36:52.988Z,1.85
2022-11-22T01:39:20.581Z,1.23
2022-11-22T01:41:48.215Z,1.67
2022-11-22T01:44:19.525Z,1.50
2022-11-22T01:46:48.974Z,1.55
2022-11-22T01:49:22.715Z,1.95
2022-11-22T01:51:52.650Z,0.73
2022-11-22T01:54:23.683Z,1.15
2022-11-22T01:56:54.310Z,2.08
2022-11-22T01:59:23.728Z,1.52
2022-11-22T02:01:51.805Z,1.38
2022-11-22T02:04:22.017Z,1.42
2022-11-22T02:06:51.779Z,0.90
2022-11-22T02:09:19.508Z,1.25
2022-11-22T02:11:48.351Z,1.45
2022-11-22T02:14:17.646Z,2.05
2022-11-22T02:16:46.894Z,2.00
2022-11-22T02:19:15.538Z,1.02
2022-11-22T02:21:45.416Z,1.50
2022-11-22T02:24:14.826Z,0.85
2022-11-22T02:26:43.801Z,0.98
2022-11-22T02:29:12.910Z,1.35
2022-11-22T02:31:42.793Z,1.48
2022-11-22T02:34:11.243Z,1.23
2022-11-22T02:36:42.306Z,1.25
2022-11-22T02:39:10.756Z,1.00
2022-11-22T02:41:38.685Z,2.33
2022-11-22T02:44:08.657Z,2.33
2022-11-22T02:46:36.274Z,1.75
2022-11-22T02:49:03.903Z,1.50
2022-11-22T02:51:31.497Z,1.08
2022-11-22T02:53:59.355Z,2.25
2022-11-22T02:56:27.132Z,1.00
2022-11-22T02:58:55.145Z,1.58
2022-11-22T03:01:24.206Z,1.30
2022-11-22T03:03:51.818Z,1.42
2022-11-22T03:06:19.452Z,1.20
2022-11-22T03:08:53.191Z,0.77
2022-11-22T03:11:23.733Z,1.75
2022-11-22T03:13:51.667Z,1.30
2022-11-22T03:16:19.395Z,2.10
2022-11-22T03:18:48.372Z,1.88
2022-11-22T03:21:16.048Z,1.23
2022-11-22T03:23:43.665Z,1.50
2022-11-22T03:26:15.306Z,1.90
2022-11-22T03:28:42.948Z,1.25
2022-11-22T03:31:10.569Z,2.22
2022-11-22T03:33:38.421Z,1.50
2022-11-22T03:36:07.493Z,1.40
2022-11-22T03:38:35.539Z,1.63
2022-11-22T03:41:03.221Z,1.13
2022-11-22T03:43:30.828Z,3.63
2022-11-22T03:45:58.570Z,1.77
2022-11-22T03:48:26.279Z,1.20
2022-11-22T03:50:53.925Z,1.88
2022-11-22T03:53:23.280Z,1.55
2022-11-22T03:55:51.035Z,1.00
2022-11-22T03:58:18.611Z,1.52
2022-11-22T04:00:46.254Z,1.70
2022-11-22T04:03:13.900Z,1.63
2022-11-22T04:05:41.501Z,1.23
2022-11-22T04:08:09.107Z,1.58
2022-11-22T04:10:38.095Z,1.38
2022-11-22T04:13:05.738Z,1.35
2022-11-22T04:15:32.588Z,1.38
2022-11-22T04:18:00.220Z,1.55
2022-11-22T04:20:46.428Z,1.33
2022-11-22T04:23:15.038Z,1.80
2022-11-22T04:25:43.939Z,1.17
2022-11-22T04:28:12.095Z,1.45
2022-11-22T04:30:56.803Z,1.42
2022-11-22T04:33:24.855Z,1.58
2022-11-22T04:35:52.766Z,2.08
2022-11-22T04:38:20.758Z,1.30
2022-11-22T04:40:49.726Z,1.40
2022-11-22T04:43:37.287Z,1.95
2022-11-22T04:46:04.957Z,1.33
2022-11-22T04:48:32.723Z,1.63
2022-11-22T04:51:17.805Z,1.45
2022-11-22T04:53:45.525Z,1.13
2022-11-22T04:56:14.576Z,1.15
2022-11-22T04:58:42.272Z,1.50
2022-11-22T05:01:10.255Z,1.30
2022-11-22T05:03:37.843Z,1.38
2022-11-22T05:06:06.884Z,1.73
2022-11-22T05:08:35.563Z,1.30
2022-11-22T05:11:03.140Z,1.92
2022-11-22T05:13:33.807Z,1.45
2022-11-22T05:16:02.082Z,1.40
2022-11-22T05:18:30.430Z,1.45
2022-11-22T05:20:58.076Z,1.35
2022-11-22T05:23:43.157Z,1.80
2022-11-22T05:26:11.589Z,2.00
2022-11-22T05:28:40.639Z,1.48
2022-11-22T05:31:09.405Z,1.60
2022-11-22T05:33:37.740Z,1.35
2022-11-22T05:36:05.836Z,1.60
2022-11-22T05:38:35.500Z,1.73
2022-11-22T05:41:03.638Z,1.55
2022-11-22T05:43:31.518Z,1.48
2022-11-22T05:46:06.855Z,1.73
2022-11-22T05:48:34.535Z,1.63
2022-11-22T05:51:04.831Z,1.73
2022-11-22T05:53:32.613Z,1.92
2022-11-22T05:56:04.227Z,1.85
2022-11-22T05:58:31.890Z,1.90
2022-11-22T06:01:03.411Z,2.00
2022-11-22T06:03:32.431Z,1.48
2022-11-22T06:06:00.129Z,1.75
2022-11-22T06:08:29.691Z,2.20
2022-11-22T06:10:59.325Z,1.80
2022-11-22T06:13:27.267Z,1.35
2022-11-22T06:16:00.286Z,1.50
2022-11-22T06:18:28.307Z,2.17
2022-11-22T06:20:59.131Z,1.40
2022-11-22T06:23:26.745Z,1.73
2022-11-22T06:25:58.256Z,2.55
2022-11-22T06:28:25.924Z,1.83
2022-11-22T06:30:53.587Z,1.80
2022-11-22T06:33:21.649Z,1.88
2022-11-22T06:35:49.261Z,1.50
2022-11-22T06:38:18.254Z,1.50
2022-11-22T06:40:45.850Z,3.10
2022-11-22T06:43:13.568Z,1.58
2022-11-22T06:45:41.311Z,1.55
2022-11-22T06:48:09.127Z,1.42
2022-11-22T06:50:36.975Z,1.40
2022-11-22T06:53:04.693Z,1.33
2022-11-22T06:55:50.193Z,1.70
2022-11-22T06:58:18.215Z,2.00
2022-11-22T07:00:45.983Z,1.88
2022-11-22T07:03:13.668Z,2.17
2022-11-22T07:05:41.350Z,1.73
2022-11-22T07:08:13.676Z,2.10
2022-11-22T07:10:43.194Z,2.13
2022-11-22T07:13:11.223Z,2.67
2022-11-22T07:15:39.003Z,2.03
2022-11-22T07:18:07.411Z,1.35
2022-11-22T07:20:35.048Z,1.73
2022-11-22T07:23:02.701Z,1.38
2022-11-22T07:25:30.305Z,2.22
2022-11-22T07:27:59.295Z,2.03
2022-11-22T07:30:26.949Z,1.60
2022-11-22T07:32:54.934Z,2.35
2022-11-22T07:35:22.540Z,2.25
2022-11-22T07:37:50.217Z,2.25
2022-11-22T07:40:17.960Z,2.03
2022-11-22T07:42:45.684Z,2.08
2022-11-22T07:45:14.668Z,2.08
2022-11-22T07:47:42.632Z,2.25
2022-11-22T07:50:10.806Z,1.63
2022-11-22T07:52:38.577Z,1.73
2022-11-22T07:55:12.500Z,1.92
2022-11-22T08:00:10.753Z,1.73
2022-11-22T08:02:39.855Z,1.52
2022-11-22T08:05:08.486Z,1.75
2022-11-22T08:07:36.131Z,1.60
2022-11-22T08:10:03.893Z,1.50
2022-11-22T08:12:31.521Z,1.50
2022-11-22T08:14:59.114Z,1.90
2022-11-22T08:17:26.773Z,1.98
2022-11-22T08:19:55.799Z,1.60
2022-11-22T08:22:23.468Z,2.30
2022-11-22T08:24:51.113Z,1.80
2022-11-22T08:27:18.717Z,1.58
2022-11-22T08:29:46.350Z,1.75
2022-11-22T08:32:13.939Z,1.75
2022-11-22T08:34:46.948Z,2.45
2022-11-22T08:37:16.446Z,2.10
2022-11-22T08:39:44.345Z,1.92
2022-11-22T08:42:12.006Z,1.90
2022-11-22T08:44:40.061Z,2.25
2022-11-22T08:47:14.359Z,1.98
2022-11-22T08:49:42.043Z,2.15
2022-11-22T08:52:09.700Z,1.60
2022-11-22T08:54:39.880Z,1.67
2022-11-22T08:57:07.539Z,1.70
2022-11-22T08:59:35.616Z,1.67
2022-11-22T09:02:03.296Z,2.35
2022-11-22T09:04:30.951Z,2.08
2022-11-22T09:09:49.522Z,1.77
2022-11-22T09:12:17.360Z,2.47
2022-11-22T09:14:45.233Z,2.10
2022-11-22T09:17:17.536Z,1.75
2022-11-22T09:19:45.843Z,1.95
2022-11-22T09:22:13.585Z,2.78
2022-11-22T09:24:41.215Z,1.42
2022-11-22T09:27:10.272Z,1.55
2022-11-22T09:29:37.904Z,1.58
2022-11-22T09:32:05.636Z,1.52
2022-11-22T09:34:33.329Z,1.83
2022-11-22T09:37:01.826Z,1.70
2022-11-22T09:39:29.749Z,1.70
2022-11-22T09:42:11.479Z,1.63
2022-11-22T09:44:48.955Z,2.22
2022-11-22T09:47:20.711Z,1.92
2022-11-22T09:49:53.802Z,1.40
2022-11-22T09:52:25.063Z,1.20
2022-11-22T09:54:55.361Z,1.65
2022-11-22T09:57:25.101Z,1.40
2022-11-22T10:00:03.485Z,1.20
2022-11-22T10:02:43.534Z,0.93
2022-11-22T10:05:18.780Z,1.38
2022-11-22T10:07:47.689Z,1.27
2022-11-22T10:10:19.212Z,1.10
2022-11-22T10:12:49.986Z,1.23
2022-11-22T10:15:27.785Z,1.25
2022-11-22T10:17:56.580Z,1.40
2022-11-22T10:20:26.009Z,1.20
2022-11-22T10:22:54.896Z,1.30
2022-11-22T10:25:23.283Z,1.02
2022-11-22T10:28:00.393Z,1.20
2022-11-22T10:30:32.489Z,1.00
2022-11-22T10:33:05.769Z,1.45
2022-11-22T10:35:44.073Z,1.27
2022-11-22T10:38:25.909Z,1.67
2022-11-22T10:40:56.366Z,1.05
2022-11-22T10:43:31.632Z,1.33
2022-11-22T10:46:04.239Z,1.08
2022-11-22T10:48:47.764Z,0.90
2022-11-22T10:51:20.934Z,0.88
2022-11-22T10:54:03.670Z,1.00
2022-11-22T10:56:33.281Z,1.00
2022-11-22T10:59:06.476Z,1.30
2022-11-22T11:01:39.520Z,1.02
2022-11-22T11:04:08.207Z,1.35
2022-11-22T11:07:04.561Z,1.33
2022-11-22T11:10:09.580Z,0.77
2022-11-22T11:12:20.576Z,0.70
2022-11-22T11:14:49.977Z,0.80
2022-11-22T11:17:24.452Z,0.70
2022-11-22T11:19:53.807Z,1.10
2022-11-22T11:22:42.806Z,1.15
2022-11-22T11:25:28.246Z,0.73
2022-11-22T11:27:58.439Z,1.00
2022-11-22T11:30:26.134Z,0.90
2022-11-22T11:32:56.038Z,0.55
2022-11-22T11:35:25.489Z,0.90
2022-11-22T11:37:53.339Z,0.80
2022-11-22T11:40:29.701Z,0.50
2022-11-22T11:43:17.486Z,1.15
2022-11-22T11:45:45.581Z,0.90
2022-11-22T11:48:28.601Z,0.73
2022-11-22T11:51:23.219Z,0.77
2022-11-22T11:53:56.161Z,0.98
2022-11-22T11:56:41.478Z,0.90
2022-11-22T11:59:12.958Z,1.00
2022-11-22T12:01:43.560Z,0.93
2022-11-22T12:04:19.717Z,0.80
2022-11-22T12:06:56.607Z,1.10
2022-11-22T12:09:32.172Z,1.00
2022-11-22T12:12:02.189Z,0.93
2022-11-22T12:14:55.516Z,0.90
2022-11-22T12:17:24.921Z,1.60
2022-11-22T12:19:57.692Z,0.90
2022-11-22T12:22:48.978Z,1.00
2022-11-22T12:25:32.493Z,0.70
2022-11-22T12:28:02.402Z,1.02
2022-11-22T12:30:30.491Z,1.02
2022-11-22T12:33:00.918Z,1.17
2022-11-22T12:35:31.218Z,0.70
2022-11-22T12:38:04.734Z,0.70
2022-11-22T12:40:33.844Z,0.98
2022-11-22T12:43:04.921Z,1.05
2022-11-22T12:45:34.839Z,1.00
2022-11-22T12:48:05.481Z,1.00
2022-11-22T12:50:39.153Z,1.17
2022-11-22T12:53:11.248Z,1.30
2022-11-22T12:55:44.820Z,0.90
2022-11-22T12:58:17.367Z,1.60
2022-11-22T13:00:48.366Z,1.10
2022-11-22T13:03:17.917Z,1.92
2022-11-22T13:05:49.408Z,0.77
2022-11-22T13:08:19.708Z,0.47
2022-11-22T13:10:50.514Z,1.15
2022-11-22T13:13:22.595Z,0.80
2022-11-22T13:15:51.018Z,1.48
2022-11-22T13:18:18.969Z,0.77
2022-11-22T13:20:52.286Z,1.05
2022-11-22T13:23:25.342Z,1.00
2022-11-22T13:25:59.789Z,1.10
2022-11-22T13:28:29.565Z,1.13
2022-11-22T13:31:07.888Z,0.95
2022-11-22T13:33:36.674Z,1.08
2022-11-22T13:36:22.844Z,1.00
2022-11-22T13:38:52.302Z,0.95
2022-11-22T13:41:24.256Z,0.70
2022-11-22T13:43:53.164Z,0.82
2022-11-22T13:46:39.258Z,0.98
2022-11-22T13:49:24.777Z,1.05
2022-11-22T13:51:54.012Z,0.90
2022-11-22T13:54:52.780Z,1.20
2022-11-22T13:57:31.016Z,1.00
2022-11-22T14:00:18.675Z,1.42
2022-11-22T14:02:47.638Z,1.65
2022-11-22T14:05:19.212Z,1.17
2022-11-22T14:07:50.425Z,1.23
2022-11-22T14:10:29.038Z,1.13
2022-11-22T14:13:08.649Z,1.20
2022-11-22T14:15:55.383Z,1.58
2022-11-22T14:18:41.909Z,1.00
2022-11-22T14:21:13.629Z,0.93
2022-11-22T14:23:46.722Z,1.33
2022-11-22T14:26:21.898Z,1.08
2022-11-22T14:29:16.059Z,0.80
2022-11-22T14:31:44.099Z,0.85
2022-11-22T14:34:15.845Z,1.17
2022-11-22T14:36:43.862Z,1.13
2022-11-22T14:39:33.639Z,0.88
2022-11-22T14:42:01.560Z,0.60
2022-11-22T14:44:33.196Z,0.93
2022-11-22T14:47:04.074Z,0.90
2022-11-22T14:49:36.062Z,0.65
2022-11-22T14:52:03.933Z,1.45
2022-11-22T14:54:40.859Z,0.90
2022-11-22T14:57:10.377Z,0.75
2022-11-22T14:59:49.639Z,0.65
2022-11-22T15:02:31.608Z,0.93
2022-11-22T15:09:15.369Z,0.95
2022-11-22T15:09:17.047Z,0.60
2022-11-22T15:11:04.347Z,0.65
2022-11-22T15:13:41.423Z,1.17
2022-11-22T15:59:03.223Z,1.67
2022-11-22T16:01:31.170Z,1.77
2022-11-22T16:03:59.701Z,2.05
2022-11-22T16:06:30.959Z,2.05
2022-11-22T16:08:59.835Z,2.67
2022-11-22T16:11:29.904Z,2.03
2022-11-22T16:13:57.957Z,2.30
2022-11-22T16:16:27.694Z,2.05
2022-11-22T16:19:14.304Z,2.80
2022-11-22T16:21:55.639Z,2.42
2022-11-22T16:24:27.480Z,2.20
2022-11-22T16:26:56.644Z,1.75
2022-11-22T16:29:30.301Z,2.50
2022-11-22T16:32:06.566Z,2.38
2022-11-22T16:34:34.304Z,2.67
2022-11-22T16:37:03.293Z,2.10
2022-11-22T16:39:31.538Z,2.42
2022-11-22T16:41:59.498Z,2.45
2022-11-22T16:44:27.104Z,1.90
2022-11-22T16:46:54.764Z,1.85
2022-11-22T16:49:23.132Z,2.10
2022-11-22T16:51:51.714Z,2.35
2022-11-22T16:54:21.239Z,2.42
2022-11-22T16:56:49.100Z,2.85
2022-11-22T16:59:16.709Z,2.10
2022-11-22T17:01:44.928Z,1.83
2022-11-22T17:04:19.047Z,1.42
2022-11-22T17:06:46.891Z,2.40
2022-11-22T17:09:14.520Z,1.38
2022-11-22T17:11:43.977Z,1.13
2022-11-22T17:14:14.543Z,0.93
2022-11-22T17:16:42.397Z,1.25
2022-11-22T17:19:24.188Z,1.30
2022-11-22T17:21:57.910Z,1.35
2022-11-22T17:24:25.696Z,1.33
2022-11-22T17:26:54.688Z,1.60
2022-11-22T17:29:49.223Z,2.38
2022-11-22T17:32:11.780Z,2.17
2022-11-22T17:34:39.447Z,1.98
2022-11-22T17:37:11.517Z,1.95
2022-11-22T17:39:39.231Z,1.85
2022-11-22T17:42:08.492Z,2.10
2022-11-22T17:44:36.253Z,2.05
2022-11-22T17:47:03.946Z,1.70
2022-11-22T17:49:31.890Z,1.25
2022-11-22T17:51:59.765Z,2.20
2022-11-22T17:54:27.566Z,1.85
2022-11-22T17:56:55.412Z,1.73
2022-11-22T17:59:24.348Z,2.38
2022-11-22T18:01:51.987Z,1.20
2022-11-22T18:04:19.741Z,1.73
2022-11-22T18:06:47.366Z,1.80
2022-11-22T18:09:15.101Z,1.88
2022-11-22T18:11:42.723Z,1.98
2022-11-22T18:14:11.235Z,1.85
2022-11-22T18:16:40.198Z,2.30
2022-11-22T18:19:08.224Z,1.58
2022-11-22T18:21:35.858Z,1.80
2022-11-22T18:24:03.552Z,1.88
2022-11-22T18:26:39.881Z,1.60
2022-11-22T18:31:57.783Z,2.58
2022-11-22T18:34:25.797Z,2.10
2022-11-22T18:36:57.463Z,3.08
2022-11-22T18:39:28.593Z,1.70
2022-11-22T18:41:56.770Z,1.60
2022-11-22T18:44:24.680Z,1.90
2022-11-22T18:46:52.342Z,1.95
2022-11-22T18:49:21.590Z,1.75
2022-11-22T18:51:49.244Z,1.55
2022-11-22T18:54:18.171Z,1.58
2022-11-22T18:56:45.848Z,2.35
2022-11-22T18:59:13.763Z,1.38
2022-11-22T19:01:42.112Z,1.88
2022-11-22T19:04:10.819Z,1.50
2022-11-22T19:06:40.550Z,2.25
2022-11-22T19:09:08.275Z,1.85
2022-11-22T19:11:36.111Z,1.70
2022-11-22T19:14:04.234Z,1.27
2022-11-22T19:16:31.941Z,1.50
2022-11-22T19:19:00.009Z,2.40
2022-11-22T19:21:28.572Z,2.22
2022-11-22T19:23:57.964Z,2.40
2022-11-22T19:26:26.356Z,1.25
2022-11-22T19:28:55.954Z,2.28
2022-11-22T19:31:25.813Z,2.35
2022-11-22T19:33:53.429Z,2.38
2022-11-22T19:36:23.427Z,2.35
2022-11-22T19:38:52.896Z,2.20
2022-11-22T19:41:22.906Z,1.42
2022-11-22T19:43:51.153Z,1.63
2022-11-22T19:46:19.805Z,2.05
2022-11-22T19:48:50.886Z,2.35
2022-11-22T19:51:18.800Z,2.30
2022-11-22T19:53:47.001Z,2.88
2022-11-22T19:56:15.258Z,2.80
2022-11-22T19:58:44.512Z,2.03
2022-11-22T20:01:13.092Z,2.33
2022-11-22T20:03:43.947Z,2.55
2022-11-22T20:06:12.711Z,2.22
2022-11-22T20:08:41.087Z,2.00
2022-11-22T20:11:09.927Z,2.65
2022-11-22T20:13:38.584Z,2.80
2022-11-22T20:16:09.016Z,2.47
2022-11-22T20:18:36.646Z,4.32
2022-11-22T20:21:05.224Z,3.60
2022-11-22T20:23:33.777Z,2.90
2022-11-22T20:26:02.086Z,2.15
2022-11-22T20:28:31.072Z,2.53
2022-11-22T20:31:06.505Z,2.90
2022-11-22T20:36:04.708Z,2.28
2022-11-22T20:38:35.651Z,2.58
2022-11-22T20:41:03.367Z,3.92
2022-11-22T20:43:31.538Z,4.38
2022-11-22T20:46:02.648Z,3.13
2022-11-22T20:48:30.498Z,2.40
2022-11-22T20:50:59.056Z,2.88
2022-11-22T20:53:29.352Z,2.42
2022-11-22T20:55:56.977Z,2.28
2022-11-22T20:58:25.974Z,2.10
2022-11-22T21:00:54.132Z,2.30
2022-11-22T21:03:22.183Z,2.25
2022-11-22T21:05:51.730Z,2.33
2022-11-22T21:08:19.952Z,2.10
2022-11-22T21:10:50.149Z,2.53
2022-11-22T21:13:18.250Z,2.60
2022-11-22T21:15:45.985Z,2.50
2022-11-22T21:18:29.155Z,2.17
2022-11-22T21:21:02.294Z,2.45
2022-11-22T21:23:29.962Z,2.15
2022-11-22T21:25:59.127Z,2.67
2022-11-22T21:28:26.977Z,2.25
2022-11-22T21:30:55.256Z,3.58
2022-11-22T21:33:23.025Z,2.58
2022-11-22T21:35:51.906Z,2.28
2022-11-22T21:38:20.353Z,1.90
2022-11-22T21:40:51.662Z,4.15
2022-11-22T21:43:20.806Z,2.05
2022-11-22T21:45:49.090Z,2.38
2022-11-22T21:48:17.012Z,1.85
2022-11-22T21:50:44.679Z,2.40
2022-11-22T21:53:13.548Z,1.88
2022-11-22T21:55:48.937Z,2.40
2022-11-22T22:00:46.388Z,2.00
2022-11-22T22:03:14.439Z,1.98
2022-11-22T22:05:42.140Z,2.05
2022-11-22T22:08:09.986Z,2.15
2022-11-22T22:10:37.785Z,2.00
2022-11-22T22:13:05.488Z,2.25
2022-11-22T22:15:33.227Z,2.78
2022-11-22T22:18:03.540Z,2.25
2022-11-22T22:20:31.197Z,2.22
2022-11-22T22:22:58.843Z,2.30
2022-11-22T22:25:26.567Z,2.00
2022-11-22T22:27:54.176Z,2.35
2022-11-22T22:30:23.105Z,2.20
2022-11-22T22:32:50.728Z,2.20
2022-11-22T22:35:20.472Z,2.47
2022-11-22T22:37:48.165Z,2.00
2022-11-22T22:40:16.261Z,2.70
2022-11-22T22:42:44.221Z,2.20
2022-11-22T22:45:12.357Z,1.98
2022-11-22T22:47:40.106Z,2.58
2022-11-22T22:50:08.011Z,2.60
2022-11-22T22:52:37.083Z,2.28
2022-11-22T22:55:04.817Z,2.50
2022-11-22T22:57:32.749Z,2.88
2022-11-22T23:00:00.376Z,2.22
2022-11-22T23:02:28.018Z,2.45
2022-11-22T23:04:55.677Z,2.50
2022-11-22T23:07:23.321Z,1.80
2022-11-22T23:09:52.540Z,2.80
2022-11-22T23:12:20.257Z,1.95
2022-11-22T23:14:48.020Z,2.08
2022-11-22T23:17:15.619Z,2.72
2022-11-22T23:19:43.313Z,1.73
2022-11-22T23:22:10.932Z,2.42
2022-11-22T23:24:38.585Z,2.20
2022-11-22T23:27:07.566Z,1.70
2022-11-22T23:29:36.033Z,3.85
2022-11-22T23:32:03.774Z,1.90
2022-11-22T23:34:31.592Z,1.83
2022-11-22T23:36:59.216Z,1.67
2022-11-22T23:39:26.940Z,2.40
2022-11-22T23:41:54.598Z,2.30
2022-11-22T23:44:23.577Z,2.13
2022-11-22T23:46:51.178Z,2.30
2022-11-22T23:49:18.817Z,2.13
2022-11-22T23:51:47.556Z,1.52
2022-11-22T23:54:15.337Z,2.65
2022-11-22T23:56:43.314Z,1.67
2022-11-22T23:59:11.457Z,1.65
